N808JB KFTY-KJQF
Flight info
| Callsign | N808JB |
|---|---|
| Flight time | N/A |
| Altitude | 13000 |
| Route | KFTY AHN ELW UNARM HUSTN RNAV 2R |
| Aircraft | SF50/L-V/N |
Departure
| Time | 2026-05-08 02:10 |
|---|---|
| Airport | Fulton County Airport Brown Field (KFTY) |
Arrival
| Time | N/A |
|---|---|
| Airport | Concord-Padgett Regional Airport (KJQF) |
| Time | Latitude | Longitude | Altitude | Speed | Heading |
|---|---|---|---|---|---|
| 2026-05-08 01:46 | 33.77732 | -84.52342 | 814 ft | 0 kts | 118° |
| 2026-05-08 02:02 | 33.77732 | -84.52341 | 814 ft | 0 kts | 116° |
| 2026-05-08 02:03 | 33.77731 | -84.52326 | 815 ft | 1 kts | 53° |
| 2026-05-08 02:03 | 33.77733 | -84.52325 | 815 ft | 0 kts | 30° |
| 2026-05-08 02:03 | 33.77750 | -84.52317 | 814 ft | 5 kts | 26° |
| 2026-05-08 02:04 | 33.77781 | -84.52280 | 815 ft | 3 kts | 50° |
| 2026-05-08 02:04 | 33.77786 | -84.52272 | 815 ft | 0 kts | 63° |
| 2026-05-08 02:04 | 33.77798 | -84.52240 | 815 ft | 6 kts | 65° |
| 2026-05-08 02:04 | 33.77814 | -84.52215 | 816 ft | 0 kts | 18° |
| 2026-05-08 02:05 | 33.77834 | -84.52213 | 815 ft | 6 kts | 353° |
| 2026-05-08 02:05 | 33.77874 | -84.52209 | 814 ft | 3 kts | 50° |
| 2026-05-08 02:05 | 33.77882 | -84.52192 | 814 ft | 7 kts | 68° |
| 2026-05-08 02:05 | 33.77899 | -84.52080 | 815 ft | 18 kts | 82° |
| 2026-05-08 02:06 | 33.77921 | -84.51937 | 817 ft | 14 kts | 79° |
| 2026-05-08 02:06 | 33.77937 | -84.51829 | 817 ft | 12 kts | 78° |
| 2026-05-08 02:06 | 33.77951 | -84.51742 | 817 ft | 9 kts | 80° |
| 2026-05-08 02:06 | 33.77961 | -84.51665 | 817 ft | 9 kts | 80° |
| 2026-05-08 02:07 | 33.77972 | -84.51595 | 816 ft | 7 kts | 77° |
| 2026-05-08 02:07 | 33.77982 | -84.51537 | 815 ft | 6 kts | 80° |
| 2026-05-08 02:07 | 33.77991 | -84.51479 | 814 ft | 9 kts | 79° |
| 2026-05-08 02:07 | 33.78008 | -84.51369 | 811 ft | 16 kts | 80° |
| 2026-05-08 02:08 | 33.78027 | -84.51237 | 805 ft | 11 kts | 73° |
| 2026-05-08 02:08 | 33.78064 | -84.51157 | 800 ft | 6 kts | 49° |
| 2026-05-08 02:08 | 33.78075 | -84.51144 | 799 ft | 0 kts | 38° |
| 2026-05-08 02:08 | 33.78077 | -84.51141 | 799 ft | 0 kts | 33° |
| 2026-05-08 02:09 | 33.78084 | -84.51137 | 798 ft | 0 kts | 26° |
| 2026-05-08 02:09 | 33.78129 | -84.51134 | 795 ft | 11 kts | 346° |
| 2026-05-08 02:09 | 33.78146 | -84.51172 | 796 ft | 5 kts | 263° |
| 2026-05-08 02:09 | 33.78099 | -84.51495 | 806 ft | 74 kts | 259° |
| 2026-05-08 02:10 | 33.77967 | -84.52261 | 968 ft | 103 kts | 259° |
| 2026-05-08 02:10 | 33.77993 | -84.53110 | 1435 ft | 107 kts | 296° |
| 2026-05-08 02:10 | 33.78568 | -84.53748 | 1879 ft | 122 kts | 330° |
| 2026-05-08 02:10 | 33.79408 | -84.54035 | 2412 ft | 132 kts | 346° |
| 2026-05-08 02:11 | 33.80321 | -84.54203 | 3008 ft | 138 kts | 345° |
| 2026-05-08 02:11 | 33.81370 | -84.54359 | 3250 ft | 170 kts | 359° |
| 2026-05-08 02:11 | 33.82467 | -84.53816 | 3916 ft | 184 kts | 38° |
| 2026-05-08 02:11 | 33.83023 | -84.52400 | 4605 ft | 188 kts | 61° |
| 2026-05-08 02:12 | 33.83426 | -84.51014 | 5479 ft | 174 kts | 61° |
| 2026-05-08 02:12 | 33.83884 | -84.49702 | 6130 ft | 171 kts | 58° |
| 2026-05-08 02:12 | 33.84303 | -84.48400 | 6780 ft | 166 kts | 61° |
| 2026-05-08 02:12 | 33.84682 | -84.47126 | 7427 ft | 157 kts | 64° |
| 2026-05-08 02:13 | 33.85000 | -84.45925 | 7945 ft | 151 kts | 65° |
| 2026-05-08 02:13 | 33.85332 | -84.44651 | 8172 ft | 167 kts | 64° |
| 2026-05-08 02:13 | 33.85714 | -84.43263 | 8420 ft | 185 kts | 64° |
| 2026-05-08 02:13 | 33.86150 | -84.41730 | 8676 ft | 203 kts | 64° |
| 2026-05-08 02:14 | 33.86632 | -84.40044 | 8939 ft | 222 kts | 65° |
| 2026-05-08 02:14 | 33.87150 | -84.38217 | 9207 ft | 239 kts | 64° |
| 2026-05-08 02:14 | 33.87730 | -84.36274 | 9439 ft | 254 kts | 62° |
| 2026-05-08 02:14 | 33.88076 | -84.34117 | 9665 ft | 271 kts | 82° |
| 2026-05-08 02:15 | 33.88245 | -84.31838 | 9886 ft | 281 kts | 84° |
| 2026-05-08 02:15 | 33.88407 | -84.29445 | 10112 ft | 289 kts | 83° |
| 2026-05-08 02:15 | 33.88574 | -84.27012 | 10328 ft | 296 kts | 83° |
| 2026-05-08 02:15 | 33.88748 | -84.24526 | 10550 ft | 300 kts | 83° |
| 2026-05-08 02:16 | 33.88920 | -84.22027 | 10777 ft | 304 kts | 83° |
| 2026-05-08 02:16 | 33.89093 | -84.19479 | 11035 ft | 306 kts | 83° |
| 2026-05-08 02:16 | 33.89268 | -84.16916 | 11300 ft | 309 kts | 83° |
| 2026-05-08 02:16 | 33.89445 | -84.14341 | 11624 ft | 308 kts | 83° |
| 2026-05-08 02:17 | 33.89621 | -84.11798 | 12018 ft | 304 kts | 83° |
| 2026-05-08 02:17 | 33.89787 | -84.09293 | 12415 ft | 302 kts | 82° |
| 2026-05-08 02:17 | 33.89958 | -84.06805 | 12818 ft | 299 kts | 83° |
| 2026-05-08 02:17 | 33.90125 | -84.04298 | 13223 ft | 297 kts | 82° |
| 2026-05-08 02:18 | 33.90293 | -84.01834 | 13621 ft | 296 kts | 82° |
| 2026-05-08 02:18 | 33.90456 | -83.99388 | 14016 ft | 295 kts | 82° |
| 2026-05-08 02:18 | 33.90620 | -83.96954 | 14419 ft | 294 kts | 83° |
| 2026-05-08 02:18 | 33.90785 | -83.94491 | 14821 ft | 293 kts | 82° |
| 2026-05-08 02:19 | 33.90952 | -83.92018 | 14964 ft | 304 kts | 83° |
| 2026-05-08 02:19 | 33.91125 | -83.89426 | 14989 ft | 319 kts | 83° |
| 2026-05-08 02:19 | 33.91304 | -83.86714 | 14989 ft | 331 kts | 83° |
| 2026-05-08 02:19 | 33.91485 | -83.83909 | 14988 ft | 340 kts | 83° |
| 2026-05-08 02:20 | 33.91672 | -83.81078 | 14987 ft | 346 kts | 83° |
| 2026-05-08 02:20 | 33.91862 | -83.78163 | 14986 ft | 352 kts | 83° |